createdAt,value
2018-11-20T00:01:57.963Z,5.85
2018-11-20T00:04:47.508Z,5.87
2018-11-20T00:07:40.766Z,5.90
2018-11-20T00:10:29.871Z,5.90
2018-11-20T00:13:18.126Z,5.88
2018-11-20T00:16:17.412Z,5.86
2018-11-20T00:19:19.610Z,5.78
2018-11-20T00:22:27.357Z,5.73
2018-11-20T00:25:25.747Z,5.70
2018-11-20T00:28:21.092Z,5.68
2018-11-20T00:31:22.649Z,5.65
2018-11-20T00:34:10.322Z,5.55
2018-11-20T00:36:58.507Z,5.54
2018-11-20T00:39:48.185Z,5.49
2018-11-20T00:42:41.404Z,5.45
2018-11-20T00:45:31.423Z,5.46
2018-11-20T00:48:58.261Z,5.49
2018-11-20T00:51:45.544Z,5.47
2018-11-20T00:54:40.135Z,5.36
2018-11-20T00:57:21.805Z,5.34
2018-11-20T01:00:14.718Z,5.31
2018-11-20T01:02:56.863Z,5.33
2018-11-20T01:05:47.482Z,5.30
2018-11-20T01:08:34.837Z,5.31
2018-11-20T01:11:23.622Z,5.29
2018-11-20T01:14:10.745Z,5.30
2018-11-20T01:17:11.298Z,5.28
2018-11-20T01:19:58.677Z,5.29
2018-11-20T01:22:43.565Z,5.24
2018-11-20T01:25:30.559Z,5.27
2018-11-20T01:28:37.659Z,5.25
2018-11-20T01:31:41.519Z,5.28
2018-11-20T01:34:42.293Z,5.23
2018-11-20T01:37:18.888Z,5.29
2018-11-20T01:40:07.772Z,5.23
2018-11-20T01:42:54.676Z,5.28
2018-11-20T01:45:51.942Z,5.27
2018-11-20T01:48:38.820Z,5.26
2018-11-20T01:51:28.081Z,5.27
2018-11-20T01:54:15.083Z,5.29
2018-11-20T01:57:08.376Z,5.25
2018-11-20T02:00:02.997Z,5.25
2018-11-20T02:02:47.606Z,5.30
2018-11-20T02:05:42.270Z,5.32
2018-11-20T02:08:21.485Z,5.25
2018-11-20T02:11:17.993Z,5.23
2018-11-20T02:14:18.437Z,5.24
2018-11-20T02:17:18.110Z,5.20
2018-11-20T02:20:05.919Z,5.23
2018-11-20T02:22:53.609Z,5.19
2018-11-20T02:25:41.892Z,5.19
2018-11-20T02:28:36.560Z,5.14
2018-11-20T02:31:28.624Z,5.20
2018-11-20T02:34:23.802Z,5.15
2018-11-20T02:37:31.849Z,5.14
2018-11-20T02:40:31.334Z,5.18
2018-11-20T02:43:35.948Z,5.18
2018-11-20T02:46:30.951Z,5.18
2018-11-20T02:49:28.293Z,5.20
2018-11-20T02:52:16.619Z,5.15
2018-11-20T02:55:14.532Z,5.14
2018-11-20T02:58:09.592Z,5.15
2018-11-20T03:00:48.988Z,5.15
2018-11-20T03:03:35.004Z,5.10
2018-11-20T03:06:24.160Z,5.10
2018-11-20T03:09:31.232Z,5.12
2018-11-20T03:12:32.282Z,5.07
2018-11-20T03:15:21.141Z,5.03
2018-11-20T03:18:25.491Z,4.97
2018-11-20T03:21:12.886Z,5.00
2018-11-20T03:24:11.135Z,5.00
2018-11-20T03:26:58.273Z,5.03
2018-11-20T03:30:18.608Z,4.96
2018-11-20T03:33:13.842Z,4.97
2018-11-20T03:36:08.752Z,4.93
2018-11-20T03:38:52.194Z,4.94
2018-11-20T03:41:57.259Z,4.91
2018-11-20T03:44:44.853Z,4.87
2018-11-20T03:47:33.046Z,4.88
2018-11-20T03:50:21.945Z,4.84
2018-11-20T03:53:10.951Z,4.83
2018-11-20T03:56:05.527Z,4.82
2018-11-20T03:59:13.995Z,4.83
2018-11-20T04:02:01.541Z,4.81
2018-11-20T04:04:43.008Z,4.76
2018-11-20T04:07:31.722Z,4.77
2018-11-20T04:10:16.511Z,4.73
2018-11-20T04:13:23.601Z,4.71
2018-11-20T04:16:01.972Z,4.73
2018-11-20T04:18:59.360Z,4.71
2018-11-20T04:21:57.308Z,4.70
2018-11-20T04:24:44.359Z,4.65
2018-11-20T04:27:36.640Z,4.61
2018-11-20T04:30:57.154Z,4.60
2018-11-20T04:34:12.784Z,4.59
2018-11-20T04:37:10.070Z,4.57
2018-11-20T04:40:15.231Z,4.69
2018-11-20T04:43:14.573Z,4.75
2018-11-20T04:46:07.096Z,4.82
2018-11-20T04:49:01.586Z,4.80
2018-11-20T04:51:49.505Z,4.86
2018-11-20T04:54:47.193Z,4.93
2018-11-20T04:57:47.349Z,4.99
2018-11-20T05:00:34.104Z,5.02
2018-11-20T05:03:21.326Z,5.02
2018-11-20T05:06:10.185Z,5.09
2018-11-20T05:08:57.334Z,5.10
2018-11-20T05:11:36.365Z,5.08
2018-11-20T05:14:23.654Z,5.14
2018-11-20T05:17:24.719Z,5.14
2018-11-20T05:20:27.600Z,5.14
2018-11-20T05:23:23.928Z,5.20
2018-11-20T05:26:12.710Z,5.20
2018-11-20T05:29:00.752Z,5.23
2018-11-20T05:31:55.123Z,5.21
2018-11-20T05:34:37.909Z,5.20
2018-11-20T05:37:30.469Z,5.10
2018-11-20T05:40:15.143Z,5.11
2018-11-20T05:43:04.117Z,5.10
2018-11-20T05:46:05.380Z,5.08
2018-11-20T05:48:57.606Z,5.13
2018-11-20T05:51:46.160Z,5.19
2018-11-20T05:54:46.871Z,5.17
2018-11-20T05:57:58.028Z,5.15
2018-11-20T06:00:45.692Z,5.20
2018-11-20T06:03:37.382Z,5.14
2018-11-20T06:06:38.815Z,5.10
2018-11-20T06:09:36.547Z,5.11
2018-11-20T06:12:27.419Z,5.05
2018-11-20T06:15:19.386Z,5.04
2018-11-20T06:18:03.245Z,4.97
2018-11-20T06:21:02.340Z,5.03
2018-11-20T06:23:51.654Z,5.01
2018-11-20T06:26:41.149Z,4.98
2018-11-20T06:29:32.825Z,5.04
2018-11-20T06:32:37.195Z,5.04
2018-11-20T06:35:25.118Z,5.12
2018-11-20T06:38:10.121Z,5.13
2018-11-20T06:40:51.583Z,5.16
2018-11-20T06:43:51.631Z,5.26
2018-11-20T06:46:39.580Z,5.25
2018-11-20T06:49:46.722Z,5.26
2018-11-20T06:52:36.233Z,5.24
2018-11-20T06:55:32.588Z,5.17
2018-11-20T06:58:21.443Z,5.26
2018-11-20T07:01:09.795Z,5.19
2018-11-20T07:04:10.824Z,5.23
2018-11-20T07:06:58.997Z,5.29
2018-11-20T07:09:47.726Z,5.29
2018-11-20T07:12:29.827Z,5.19
2018-11-20T07:15:21.280Z,5.24
2018-11-20T07:18:31.969Z,5.25
2018-11-20T07:21:20.392Z,5.28
2018-11-20T07:24:24.765Z,5.28
2018-11-20T07:27:12.138Z,5.25
2018-11-20T07:29:59.677Z,5.12
2018-11-20T07:32:46.089Z,5.12
2018-11-20T07:35:34.798Z,5.01
2018-11-20T07:38:35.955Z,5.03
2018-11-20T07:41:29.028Z,5.05
2018-11-20T07:44:28.378Z,5.10
2018-11-20T07:47:23.560Z,5.09
2018-11-20T07:50:10.861Z,5.04
2018-11-20T07:52:58.209Z,5.03
2018-11-20T07:55:54.238Z,5.13
2018-11-20T07:58:33.195Z,5.09
2018-11-20T08:01:24.448Z,5.15
2018-11-20T08:04:11.438Z,5.08
2018-11-20T08:06:58.307Z,5.01
2018-11-20T08:09:53.946Z,5.09
2018-11-20T08:12:32.709Z,5.10
2018-11-20T08:15:30.757Z,5.07
2018-11-20T08:18:11.031Z,5.19
2018-11-20T08:21:08.561Z,5.12
2018-11-20T08:24:12.395Z,5.12
2018-11-20T08:27:19.132Z,5.20
2018-11-20T08:30:09.161Z,5.15
2018-11-20T08:32:56.433Z,5.14
2018-11-20T08:35:43.500Z,5.19
2018-11-20T08:38:24.912Z,5.19
2018-11-20T08:41:18.340Z,5.16
2018-11-20T08:44:07.305Z,5.13
2018-11-20T08:46:55.691Z,5.09
2018-11-20T08:49:44.228Z,5.12
2018-11-20T08:52:32.761Z,5.24
2018-11-20T08:55:20.699Z,5.30
2018-11-20T08:58:09.372Z,5.36
2018-11-20T09:01:16.628Z,5.31
2018-11-20T09:04:03.330Z,5.37
2018-11-20T09:06:51.444Z,5.31
2018-11-20T09:09:39.271Z,5.35
2018-11-20T09:12:26.293Z,5.34
2018-11-20T09:15:14.820Z,5.26
2018-11-20T09:18:12.661Z,5.33
2018-11-20T09:21:14.554Z,5.31
2018-11-20T09:23:59.776Z,5.25
2018-11-20T09:26:50.018Z,5.28
2018-11-20T09:29:33.049Z,5.28
2018-11-20T09:32:21.570Z,5.26
2018-11-20T09:35:09.856Z,5.17
2018-11-20T09:37:57.496Z,5.17
2018-11-20T09:40:59.801Z,5.18
2018-11-20T09:43:58.019Z,5.24
2018-11-20T09:46:56.195Z,5.21
2018-11-20T09:49:44.765Z,5.18
2018-11-20T09:52:37.041Z,5.25
2018-11-20T09:55:28.475Z,5.36
2018-11-20T09:58:26.152Z,5.39
2018-11-20T10:01:06.883Z,5.48
2018-11-20T10:03:57.314Z,5.42
2018-11-20T10:06:45.004Z,5.48
2018-11-20T10:09:35.161Z,5.64
2018-11-20T10:12:22.684Z,5.46
2018-11-20T10:15:11.050Z,5.44
2018-11-20T10:18:18.154Z,5.47
2018-11-20T10:21:08.479Z,5.45
2018-11-20T10:23:57.044Z,5.41
2018-11-20T10:26:51.305Z,5.37
2018-11-20T10:29:45.199Z,5.40
2018-11-20T10:32:37.636Z,5.42
2018-11-20T10:35:26.294Z,5.44
2018-11-20T10:45:26.678Z,5.54
2018-11-20T10:48:14.851Z,5.56
2018-11-20T10:51:02.628Z,5.62
2018-11-20T10:53:53.461Z,5.69
2018-11-20T10:56:45.425Z,5.53
2018-11-20T10:59:32.466Z,5.56
2018-11-20T11:02:20.985Z,5.67
2018-11-20T11:05:08.708Z,5.77
2018-11-20T11:07:57.179Z,5.74
2018-11-20T11:11:01.406Z,5.85
2018-11-20T11:13:49.383Z,5.68
2018-11-20T11:16:38.983Z,5.72
2018-11-20T11:19:25.133Z,5.73
2018-11-20T11:22:09.999Z,5.75
2018-11-20T11:25:07.971Z,5.76
2018-11-20T11:28:18.279Z,5.80
2018-11-20T11:31:17.814Z,5.83
2018-11-20T11:34:01.294Z,5.79
2018-11-20T11:37:08.034Z,5.78
2018-11-20T11:39:55.644Z,5.71
2018-11-20T11:42:44.422Z,5.65
2018-11-20T11:45:42.295Z,5.71
2018-11-20T11:48:38.201Z,5.71
2018-11-20T11:51:17.458Z,5.70
2018-11-20T11:53:56.619Z,5.71
2018-11-20T11:56:47.087Z,5.76
2018-11-20T11:59:41.753Z,5.74
2018-11-20T12:05:17.241Z,5.80
2018-11-20T12:08:16.799Z,5.83
2018-11-20T12:11:02.808Z,5.83
2018-11-20T12:14:02.240Z,5.68
2018-11-20T12:16:53.678Z,5.58
2018-11-20T12:19:49.334Z,5.64
2018-11-20T12:22:38.694Z,5.58
2018-11-20T12:25:26.183Z,5.50
2018-11-20T12:28:20.819Z,5.50
2018-11-20T12:31:05.761Z,5.44
2018-11-20T12:33:49.230Z,5.51
2018-11-20T12:36:48.851Z,5.52
2018-11-20T12:39:51.232Z,5.41
2018-11-20T12:42:42.234Z,5.30
2018-11-20T12:45:49.876Z,5.34
2018-11-20T12:48:56.320Z,5.25
2018-11-20T12:51:41.492Z,5.26
2018-11-20T12:54:30.318Z,5.24
2018-11-20T12:57:37.134Z,5.23
2018-11-20T13:00:43.084Z,5.30
2018-11-20T13:03:34.651Z,5.33
2018-11-20T13:06:25.890Z,5.41
2018-11-20T13:09:08.175Z,5.26
2018-11-20T13:11:57.231Z,5.19
2018-11-20T13:14:44.430Z,5.18
2018-11-20T13:17:45.442Z,5.20
2018-11-20T13:20:37.035Z,5.26
2018-11-20T13:23:25.576Z,5.16
2018-11-20T13:26:12.480Z,5.23
2018-11-20T13:29:08.740Z,5.13
2018-11-20T13:31:56.569Z,5.06
2018-11-20T13:34:43.615Z,5.11
2018-11-20T13:37:40.972Z,5.10
2018-11-20T13:41:08.232Z,5.20
2018-11-20T13:44:08.565Z,5.09
2018-11-20T13:47:00.595Z,5.01
2018-11-20T13:49:43.230Z,5.07
2018-11-20T13:52:38.228Z,5.08
2018-11-20T13:55:36.181Z,5.13
2018-11-20T13:58:43.685Z,5.07
2018-11-20T14:01:33.139Z,5.07
2018-11-20T14:04:14.796Z,5.07
2018-11-20T14:07:01.875Z,5.00
2018-11-20T14:09:48.996Z,5.09
2018-11-20T14:12:44.665Z,5.08
2018-11-20T14:15:30.633Z,5.05
2018-11-20T14:18:25.946Z,5.03
2018-11-20T14:21:22.434Z,5.14
2018-11-20T14:24:10.272Z,5.02
2018-11-20T14:27:00.280Z,5.11
2018-11-20T14:29:49.147Z,5.16
2018-11-20T14:32:47.954Z,5.17
2018-11-20T14:35:49.024Z,5.10
2018-11-20T14:38:36.017Z,5.08
2018-11-20T14:41:23.471Z,4.94
2018-11-20T14:44:25.013Z,4.96
2018-11-20T14:47:25.428Z,4.85
2018-11-20T14:50:26.104Z,4.84
2018-11-20T14:53:21.411Z,4.82
2018-11-20T14:56:04.915Z,4.83
2018-11-20T14:58:45.399Z,4.86
2018-11-20T15:01:34.775Z,4.80
2018-11-20T15:04:23.358Z,4.82
2018-11-20T15:07:06.587Z,4.80
2018-11-20T15:09:54.411Z,4.86
2018-11-20T15:12:39.377Z,4.79
2018-11-20T15:15:32.118Z,4.81
2018-11-20T15:18:16.368Z,4.82
2018-11-20T15:21:00.442Z,4.83
2018-11-20T15:23:49.245Z,4.85
2018-11-20T15:26:44.075Z,4.81
2018-11-20T15:29:47.085Z,4.85
2018-11-20T15:32:35.811Z,4.78
2018-11-20T15:35:36.991Z,4.81
2018-11-20T15:38:27.682Z,4.87
2018-11-20T15:41:31.312Z,4.85
2018-11-20T15:44:18.500Z,4.88
2018-11-20T15:47:04.598Z,4.97
2018-11-20T15:49:55.123Z,4.96
2018-11-20T15:52:47.626Z,4.99
2018-11-20T15:55:37.506Z,4.97
2018-11-20T15:58:17.601Z,5.06
2018-11-20T16:01:05.559Z,5.03
2018-11-20T16:03:55.691Z,5.01
2018-11-20T16:06:53.952Z,5.04
2018-11-20T16:09:52.086Z,5.16
2018-11-20T16:12:42.461Z,5.14
2018-11-20T16:15:31.344Z,5.16
2018-11-20T16:18:21.761Z,5.23
2018-11-20T16:21:08.761Z,5.23
2018-11-20T16:24:03.548Z,5.20
2018-11-20T16:26:55.969Z,5.20
2018-11-20T16:29:46.339Z,5.30
2018-11-20T16:32:35.261Z,5.30
2018-11-20T16:35:27.749Z,5.31
2018-11-20T16:38:10.688Z,5.32
2018-11-20T16:40:54.321Z,5.28
2018-11-20T16:43:50.094Z,5.34
2018-11-20T16:46:39.666Z,5.40
2018-11-20T16:49:29.566Z,5.36
2018-11-20T16:52:15.187Z,5.40
2018-11-20T16:55:11.937Z,5.33
2018-11-20T16:58:09.454Z,5.35
2018-11-20T17:00:48.258Z,5.42
2018-11-20T17:03:35.175Z,5.41
2018-11-20T17:06:33.684Z,5.47
2018-11-20T17:09:37.766Z,5.35
2018-11-20T17:12:35.623Z,5.31
2018-11-20T17:15:24.521Z,5.33
2018-11-20T17:18:16.544Z,5.41
2018-11-20T17:21:14.873Z,5.33
2018-11-20T17:24:06.462Z,5.25
2018-11-20T17:27:14.957Z,5.26
2018-11-20T17:30:03.490Z,5.29
2018-11-20T17:32:52.268Z,5.32
2018-11-20T17:35:39.138Z,5.34
2018-11-20T17:38:26.427Z,5.27
2018-11-20T17:41:16.776Z,5.31
2018-11-20T17:44:08.416Z,5.27
2018-11-20T17:47:00.980Z,5.25
2018-11-20T17:49:49.156Z,5.23
2018-11-20T17:52:40.684Z,5.20
2018-11-20T17:55:25.543Z,5.13
2018-11-20T17:58:19.490Z,5.20
2018-11-20T18:01:07.081Z,5.14
2018-11-20T18:03:47.314Z,5.16
2018-11-20T18:06:42.216Z,5.15
2018-11-20T18:09:33.864Z,5.05
2018-11-20T18:12:23.853Z,5.09
2018-11-20T18:15:28.252Z,5.12
2018-11-20T18:18:15.887Z,5.01
2018-11-20T18:21:07.262Z,5.12
2018-11-20T18:23:55.989Z,5.07
2018-11-20T18:26:53.706Z,4.97
2018-11-20T18:29:40.592Z,4.99
2018-11-20T18:32:27.954Z,5.01
2018-11-20T18:35:15.947Z,4.93
2018-11-20T18:38:10.063Z,4.99
2018-11-20T18:41:03.933Z,4.98
2018-11-20T18:44:00.030Z,4.96
2018-11-20T18:46:50.432Z,4.87
2018-11-20T18:49:42.443Z,4.89
2018-11-20T18:52:32.677Z,4.90
2018-11-20T18:55:26.429Z,4.94
2018-11-20T18:58:16.565Z,4.87
2018-11-20T19:01:05.257Z,4.90
2018-11-20T19:04:07.323Z,4.85
2018-11-20T19:07:05.198Z,4.89
2018-11-20T19:09:54.699Z,4.89
2018-11-20T19:12:42.869Z,4.81
2018-11-20T19:15:44.502Z,4.77
2018-11-20T19:18:32.164Z,4.74
2018-11-20T19:21:27.271Z,4.71
2018-11-20T19:24:14.449Z,4.73
2018-11-20T19:26:56.906Z,4.78
2018-11-20T19:29:49.468Z,4.75
2018-11-20T19:32:36.789Z,4.78
2018-11-20T19:35:38.157Z,4.76
2018-11-20T19:38:17.851Z,4.81
2018-11-20T19:41:29.652Z,4.77
2018-11-20T19:44:16.992Z,4.61
2018-11-20T19:47:02.496Z,4.68
2018-11-20T19:49:57.666Z,4.59
2018-11-20T19:52:56.180Z,4.61
2018-11-20T19:55:43.734Z,4.63
2018-11-20T19:58:28.340Z,4.46
2018-11-20T20:01:23.026Z,4.38
2018-11-20T20:04:23.785Z,4.37
2018-11-20T20:07:12.103Z,4.32
2018-11-20T20:09:55.880Z,4.43
2018-11-20T20:12:44.315Z,4.43
2018-11-20T20:15:38.203Z,4.39
2018-11-20T20:18:27.932Z,4.35
2018-11-20T20:21:23.215Z,4.28
2018-11-20T20:24:15.097Z,4.36
2018-11-20T20:27:15.838Z,4.35
2018-11-20T20:30:09.665Z,4.40
2018-11-20T20:33:13.741Z,4.43
2018-11-20T20:36:23.810Z,4.44
2018-11-20T20:39:28.787Z,4.43
2018-11-20T20:42:16.523Z,4.31
2018-11-20T20:45:27.278Z,4.33
2018-11-20T20:48:16.515Z,4.34
2018-11-20T20:50:56.441Z,4.32
2018-11-20T20:53:43.518Z,4.39
2018-11-20T20:56:30.803Z,4.35
2018-11-20T20:59:24.833Z,4.31
2018-11-20T21:02:12.498Z,4.33
2018-11-20T21:05:14.901Z,4.34
2018-11-20T21:08:03.598Z,4.18
2018-11-20T21:10:51.182Z,4.10
2018-11-20T21:13:40.554Z,4.05
2018-11-20T21:16:29.350Z,4.05
2018-11-20T21:19:24.590Z,4.10
2018-11-20T21:22:25.889Z,4.11
2018-11-20T21:25:20.742Z,4.10
2018-11-20T21:28:03.898Z,4.16
2018-11-20T21:31:07.182Z,4.13
2018-11-20T21:34:01.789Z,4.15
2018-11-20T21:37:00.226Z,4.12
2018-11-20T21:39:52.453Z,3.99
2018-11-20T21:42:50.451Z,3.98
2018-11-20T21:45:38.303Z,3.99
2018-11-20T21:48:30.190Z,4.04
2018-11-20T21:51:19.086Z,3.95
2018-11-20T21:54:14.607Z,4.01
2018-11-20T21:57:07.134Z,3.96
2018-11-20T22:00:03.880Z,3.90
2018-11-20T22:02:56.420Z,3.89
2018-11-20T22:05:53.405Z,3.92
2018-11-20T22:08:58.851Z,3.97
2018-11-20T22:11:50.765Z,3.91
2018-11-20T22:14:45.600Z,3.81
2018-11-20T22:17:49.319Z,3.85
2018-11-20T22:20:41.913Z,3.81
2018-11-20T22:23:32.831Z,3.80
2018-11-20T22:26:22.088Z,3.78
2018-11-20T22:29:24.594Z,3.79
2018-11-20T22:32:22.273Z,3.76
2018-11-20T22:35:12.786Z,3.75
2018-11-20T22:38:08.339Z,3.75
2018-11-20T22:41:11.697Z,3.74
2018-11-20T22:44:12.536Z,3.73
2018-11-20T22:47:00.496Z,3.71
2018-11-20T22:50:02.080Z,3.80
2018-11-20T22:53:02.840Z,3.76
2018-11-20T22:55:49.439Z,3.78
2018-11-20T22:58:50.605Z,3.78
2018-11-20T23:01:57.061Z,3.82
2018-11-20T23:05:02.508Z,3.89
2018-11-20T23:07:48.225Z,3.83
2018-11-20T23:10:24.255Z,3.79
2018-11-20T23:12:58.727Z,3.84
2018-11-20T23:15:28.240Z,3.73
2018-11-20T23:18:01.654Z,3.79
2018-11-20T23:20:36.844Z,3.87
2018-11-20T23:23:05.039Z,3.78
2018-11-20T23:25:35.672Z,3.73
2018-11-20T23:28:06.538Z,3.81
2018-11-20T23:30:36.469Z,3.82
2018-11-20T23:33:09.674Z,3.83
2018-11-20T23:35:43.313Z,3.74
2018-11-20T23:38:14.744Z,3.77
2018-11-20T23:40:45.829Z,3.78
2018-11-20T23:43:16.095Z,3.70
2018-11-20T23:45:45.702Z,3.70
2018-11-20T23:48:15.403Z,3.72
2018-11-20T23:50:47.093Z,3.74
2018-11-20T23:53:16.734Z,3.79
2018-11-20T23:55:46.312Z,3.67
2018-11-20T23:58:16.038Z,3.72
